Time;durP1;ratioP1;P1;durP2;ratioP2;P2;SDS_P1;SDS_P2;PMS_P1;PMS_P2;Temp;Humidity;BMP_temperature;BMP_pressure;BME280_temperature;BME280_humidity;BME280_pressure;Samples;Min_cycle;Max_cycle;Signal;HPM_P1;HPM_P2
2023/08/20 00:00:59;;;;;;;11.82;4.03;;;16.20;99.90;;;;;;5075863;28;20068;-75
2023/08/20 00:03:24;;;;;;;11.32;3.75;;;16.20;99.90;;;;;;5075636;28;20396;-75
2023/08/20 00:05:51;;;;;;;11.02;4.18;;;16.10;99.90;;;;;;5075598;28;20039;-75
2023/08/20 00:08:16;;;;;;;12.38;4.07;;;16.20;99.90;;;;;;5075568;28;20045;-75
2023/08/20 00:10:42;;;;;;;12.43;4.30;;;16.20;99.90;;;;;;5076575;28;20048;-75
2023/08/20 00:13:08;;;;;;;12.43;4.78;;;16.10;99.90;;;;;;5075335;28;20135;-75
2023/08/20 00:15:46;;;;;;;9.80;5.10;;;16.10;99.90;;;;;;5075575;28;20074;-75
2023/08/20 00:18:15;;;;;;;13.02;4.53;;;16.10;99.90;;;;;;5075600;28;20066;-75
2023/08/20 00:20:41;;;;;;;11.55;4.28;;;16.10;99.90;;;;;;5075323;28;20480;-75
2023/08/20 00:23:07;;;;;;;14.52;4.40;;;16.10;99.90;;;;;;5075327;28;20127;-75
2023/08/20 00:25:33;;;;;;;12.50;4.43;;;16.00;99.90;;;;;;5075283;28;20078;-75
2023/08/20 00:27:59;;;;;;;13.05;3.90;;;16.00;99.90;;;;;;5076384;28;20048;-75
2023/08/20 00:30:25;;;;;;;13.57;4.40;;;16.10;99.90;;;;;;5075122;28;20033;-75
2023/08/20 00:32:50;;;;;;;10.32;3.70;;;16.10;99.90;;;;;;5075064;28;20054;-75
2023/08/20 00:35:16;;;;;;;10.02;3.80;;;16.10;99.90;;;;;;5074735;28;20144;-75
2023/08/20 00:37:44;;;;;;;12.35;4.07;;;16.20;99.90;;;;;;5074867;28;20087;-75
2023/08/20 00:40:10;;;;;;;12.32;3.75;;;16.20;99.90;;;;;;5074838;28;20089;-75
2023/08/20 00:42:37;;;;;;;11.02;3.90;;;16.10;99.90;;;;;;5075086;28;20132;-75
2023/08/20 00:45:03;;;;;;;12.57;3.63;;;16.10;99.90;;;;;;5075123;28;20123;-75
2023/08/20 00:47:29;;;;;;;9.40;4.25;;;16.10;99.90;;;;;;5074930;28;20056;-75
2023/08/20 00:49:56;;;;;;;11.02;4.35;;;16.10;99.90;;;;;;5074862;28;20047;-75
2023/08/20 00:52:22;;;;;;;9.13;4.18;;;16.10;99.90;;;;;;5074543;28;20048;-75
2023/08/20 00:54:49;;;;;;;13.60;4.80;;;16.10;99.90;;;;;;5075929;28;20182;-75
2023/08/20 00:57:17;;;;;;;13.40;4.80;;;16.10;99.90;;;;;;5074624;28;20089;-75
2023/08/20 00:59:44;;;;;;;13.77;4.80;;;16.00;99.90;;;;;;5074912;28;20048;-75
2023/08/20 01:02:11;;;;;;;13.18;5.18;;;16.00;99.90;;;;;;5074707;28;20121;-75
2023/08/20 01:04:36;;;;;;;10.00;4.57;;;16.00;99.90;;;;;;5075351;28;20410;-75
2023/08/20 01:07:35;;;;;;;11.23;4.80;;;15.90;99.90;;;;;;5074472;28;20472;-75
2023/08/20 01:10:13;;;;;;;9.88;4.75;;;15.90;99.90;;;;;;5030655;28;20048;-75
2023/08/20 01:12:39;;;;;;;12.05;5.38;;;15.80;99.90;;;;;;5074382;28;20055;-75
2023/08/20 01:15:05;;;;;;;12.43;5.45;;;15.80;99.90;;;;;;5074603;28;20420;-75
2023/08/20 01:17:31;;;;;;;11.23;4.85;;;15.70;99.90;;;;;;5074116;28;20044;-74
2023/08/20 01:19:57;;;;;;;12.25;5.32;;;15.70;99.90;;;;;;5074114;28;20059;-75
2023/08/20 01:22:44;;;;;;;8.68;5.53;;;15.60;99.90;;;;;;5074390;28;20053;-75
2023/08/20 01:25:45;;;;;;;10.13;4.70;;;15.70;99.90;;;;;;5075123;28;20097;-75
2023/08/20 01:28:39;;;;;;;10.60;4.72;;;15.60;99.90;;;;;;5074207;28;20033;-75
2023/08/20 01:31:05;;;;;;;9.93;4.32;;;15.60;99.90;;;;;;5070961;28;20061;-75
2023/08/20 01:33:32;;;;;;;13.55;4.60;;;15.60;99.90;;;;;;5073635;28;20049;-75
2023/08/20 01:35:58;;;;;;;13.55;4.47;;;15.60;99.90;;;;;;5075111;28;20488;-75
2023/08/20 01:38:23;;;;;;;10.50;4.07;;;15.70;99.90;;;;;;5073923;28;20053;-75
2023/08/20 01:40:49;;;;;;;13.40;4.60;;;15.70;99.90;;;;;;5073973;28;20044;-75
2023/08/20 01:43:15;;;;;;;12.45;4.68;;;15.80;99.90;;;;;;5073589;28;20052;-75
2023/08/20 01:45:41;;;;;;;14.60;4.70;;;15.80;99.90;;;;;;5073943;28;20048;-75
2023/08/20 01:48:06;;;;;;;13.57;4.63;;;15.80;99.90;;;;;;5073674;28;20044;-75
2023/08/20 01:50:34;;;;;;;12.20;4.70;;;15.90;99.90;;;;;;5074647;28;20048;-75
2023/08/20 01:53:00;;;;;;;15.18;4.95;;;15.90;99.90;;;;;;5073899;28;20040;-75
2023/08/20 01:55:26;;;;;;;12.57;4.78;;;15.90;99.90;;;;;;5074658;28;20041;-75
2023/08/20 01:57:51;;;;;;;13.60;5.10;;;15.90;99.90;;;;;;5073413;28;20052;-74
2023/08/20 02:00:17;;;;;;;11.63;4.90;;;16.00;99.90;;;;;;5073412;28;20048;-74
2023/08/20 02:02:43;;;;;;;14.30;5.13;;;16.00;99.90;;;;;;5073553;28;20040;-74
2023/08/20 02:05:10;;;;;;;14.55;4.30;;;16.00;99.90;;;;;;5073122;28;20105;-74
2023/08/20 02:07:36;;;;;;;10.60;4.25;;;16.00;99.90;;;;;;5073189;28;20044;-74
2023/08/20 02:10:02;;;;;;;17.67;5.13;;;15.90;99.90;;;;;;5073143;28;20048;-74
2023/08/20 02:12:27;;;;;;;10.45;4.57;;;16.00;99.90;;;;;;5073806;28;20053;-74
2023/08/20 02:14:59;;;;;;;13.27;5.05;;;16.00;99.90;;;;;;5072910;28;20040;-74
2023/08/20 02:17:25;;;;;;;11.80;4.57;;;16.00;99.90;;;;;;5073103;28;20406;-74
2023/08/20 02:19:50;;;;;;;12.32;4.57;;;16.00;99.90;;;;;;5072895;28;20040;-74
2023/08/20 02:22:17;;;;;;;15.07;4.72;;;16.00;99.90;;;;;;5073032;28;20048;-74
2023/08/20 02:24:43;;;;;;;14.23;4.95;;;16.00;99.90;;;;;;5073185;28;20048;-74
2023/08/20 02:27:08;;;;;;;12.00;5.18;;;16.00;99.90;;;;;;5072909;28;20542;-74
2023/08/20 02:29:34;;;;;;;12.63;4.93;;;15.90;99.90;;;;;;5072836;28;20045;-74
2023/08/20 02:31:59;;;;;;;10.75;4.55;;;16.00;99.90;;;;;;5072931;28;20037;-74
2023/08/20 02:34:25;;;;;;;14.85;5.03;;;15.90;99.90;;;;;;5072362;28;20087;-74
2023/08/20 02:36:51;;;;;;;11.07;4.85;;;15.90;99.90;;;;;;5072544;28;20052;-74
2023/08/20 02:39:16;;;;;;;14.05;5.20;;;15.90;99.90;;;;;;5072941;28;20169;-74
2023/08/20 02:41:42;;;;;;;14.43;5.82;;;15.80;99.90;;;;;;5072778;28;20044;-74
2023/08/20 02:44:08;;;;;;;9.65;5.40;;;15.90;99.90;;;;;;5073921;28;20139;-74
2023/08/20 02:46:33;;;;;;;14.63;6.18;;;15.80;99.90;;;;;;5072894;28;20066;-74
2023/08/20 02:48:59;;;;;;;12.68;5.65;;;15.70;99.90;;;;;;5072375;28;20407;-74
2023/08/20 02:51:25;;;;;;;12.82;5.40;;;15.70;99.90;;;;;;5072640;28;20494;-74
2023/08/20 02:53:50;;;;;;;13.65;5.30;;;15.70;99.90;;;;;;5072444;28;20044;-74
2023/08/20 02:56:16;;;;;;;11.38;6.00;;;15.70;99.90;;;;;;5072534;28;20043;-74
2023/08/20 02:58:41;;;;;;;10.88;5.55;;;15.70;99.90;;;;;;5072488;28;20056;-74
2023/08/20 03:01:18;;;;;;;11.90;4.82;;;15.60;99.90;;;;;;5072627;28;20087;-74
2023/08/20 03:03:46;;;;;;;11.82;5.70;;;15.60;99.90;;;;;;5072584;28;20123;-74
2023/08/20 03:06:12;;;;;;;11.95;5.68;;;15.60;99.90;;;;;;5072274;28;20072;-74
2023/08/20 03:08:38;;;;;;;13.13;5.63;;;15.50;99.90;;;;;;5072286;28;20079;-74
2023/08/20 03:11:03;;;;;;;13.20;5.68;;;15.50;99.90;;;;;;5072311;28;20503;-74
2023/08/20 03:13:29;;;;;;;12.23;5.07;;;15.50;99.90;;;;;;5072216;28;20040;-74
2023/08/20 03:15:54;;;;;;;12.88;6.18;;;15.50;99.90;;;;;;5072398;28;20044;-74
2023/08/20 03:18:23;;;;;;;11.10;5.13;;;15.50;99.90;;;;;;5072136;28;20080;-74
2023/08/20 03:20:51;;;;;;;12.75;5.90;;;15.50;99.90;;;;;;5072472;28;20120;-74
2023/08/20 03:23:17;;;;;;;14.27;6.13;;;15.50;99.90;;;;;;5073557;28;20124;-74
2023/08/20 03:25:42;;;;;;;14.82;5.90;;;15.40;99.90;;;;;;5076447;28;20150;-74
2023/08/20 03:28:08;;;;;;;12.50;6.50;;;15.40;99.90;;;;;;5077673;28;20080;-74
2023/08/20 03:30:34;;;;;;;10.27;6.10;;;15.40;99.90;;;;;;5076133;28;20032;-74
2023/08/20 03:33:00;;;;;;;11.52;6.43;;;15.40;99.90;;;;;;5076135;28;20139;-74
2023/08/20 03:35:25;;;;;;;13.13;6.38;;;15.40;99.90;;;;;;5075672;28;20106;-74
2023/08/20 03:37:51;;;;;;;11.63;6.20;;;15.40;99.90;;;;;;5077424;28;20048;-74
2023/08/20 03:40:18;;;;;;;15.38;6.47;;;15.40;99.90;;;;;;5076427;28;20071;-74
2023/08/20 03:42:44;;;;;;;10.98;6.15;;;15.40;99.90;;;;;;5076008;28;20472;-74
2023/08/20 03:45:10;;;;;;;13.63;6.28;;;15.40;99.90;;;;;;5077069;28;20043;-74
2023/08/20 03:47:36;;;;;;;12.82;6.20;;;15.30;99.90;;;;;;5075833;28;20473;-74
2023/08/20 03:50:03;;;;;;;13.27;6.20;;;15.40;99.90;;;;;;5077262;28;20150;-74
2023/08/20 03:52:29;;;;;;;14.68;6.55;;;15.30;99.90;;;;;;5075641;28;20051;-74
2023/08/20 03:54:55;;;;;;;13.48;6.57;;;15.40;99.90;;;;;;5076086;28;20036;-74
2023/08/20 03:57:20;;;;;;;12.73;6.75;;;15.30;99.90;;;;;;5075693;28;20529;-74
2023/08/20 03:59:47;;;;;;;11.25;6.75;;;15.30;99.90;;;;;;5077068;28;20040;-74
2023/08/20 04:02:13;;;;;;;10.38;6.97;;;15.30;99.90;;;;;;5076355;28;20049;-74
2023/08/20 04:04:39;;;;;;;11.40;6.45;;;15.30;99.90;;;;;;5076718;28;20377;-74
2023/08/20 04:07:04;;;;;;;14.43;7.28;;;15.30;99.90;;;;;;5075648;28;20067;-74
2023/08/20 04:09:31;;;;;;;12.73;6.28;;;15.20;99.90;;;;;;5075566;28;20028;-74
2023/08/20 04:11:57;;;;;;;14.88;6.53;;;15.20;99.90;;;;;;5075353;28;20048;-74
2023/08/20 04:14:26;;;;;;;15.07;6.70;;;15.30;99.90;;;;;;5075329;28;20132;-74
2023/08/20 04:16:51;;;;;;;14.55;6.30;;;15.40;99.90;;;;;;5074938;28;20044;-74
2023/08/20 04:19:17;;;;;;;12.80;6.03;;;15.30;99.90;;;;;;5073721;28;20450;-74
2023/08/20 04:21:42;;;;;;;14.30;6.97;;;15.40;99.90;;;;;;5076559;28;20063;-74
2023/08/20 04:24:08;;;;;;;13.27;6.68;;;15.50;99.90;;;;;;5074874;28;20048;-74
2023/08/20 04:26:34;;;;;;;17.45;6.25;;;15.50;99.90;;;;;;5074747;28;20484;-74
2023/08/20 04:29:00;;;;;;;16.25;6.60;;;15.50;99.90;;;;;;5074984;28;20052;-74
2023/08/20 04:31:26;;;;;;;11.80;6.13;;;15.60;99.90;;;;;;5074843;28;20036;-74
2023/08/20 04:33:51;;;;;;;17.05;6.30;;;15.50;99.90;;;;;;5075735;28;20128;-73
2023/08/20 04:36:17;;;;;;;19.92;6.20;;;15.60;99.90;;;;;;5075832;28;20090;-73
2023/08/20 04:38:45;;;;;;;12.98;5.55;;;15.60;99.90;;;;;;5074857;28;20533;-74
2023/08/20 04:41:11;;;;;;;15.88;5.97;;;15.70;99.90;;;;;;5074679;28;20041;-74
2023/08/20 04:43:37;;;;;;;11.00;5.57;;;15.60;99.90;;;;;;5074920;28;20043;-74
2023/08/20 04:46:02;;;;;;;14.25;5.72;;;15.70;99.90;;;;;;5074579;28;20391;-74
2023/08/20 04:48:31;;;;;;;13.38;5.72;;;15.70;99.90;;;;;;5074532;28;20476;-74
2023/08/20 04:50:57;;;;;;;18.38;6.32;;;15.70;99.90;;;;;;5074517;28;20407;-74
2023/08/20 04:53:22;;;;;;;10.85;5.50;;;15.70;99.90;;;;;;5074362;28;20530;-74
2023/08/20 04:55:48;;;;;;;11.77;5.57;;;15.80;99.90;;;;;;5074666;28;20075;-74
2023/08/20 04:58:13;;;;;;;11.82;5.38;;;15.80;99.90;;;;;;5074390;28;20384;-74
2023/08/20 05:00:39;;;;;;;12.50;5.97;;;15.80;99.90;;;;;;5075751;28;20102;-74
2023/08/20 05:03:05;;;;;;;13.82;6.30;;;15.80;99.90;;;;;;5074548;28;20559;-74
2023/08/20 05:05:30;;;;;;;12.82;5.95;;;15.80;99.90;;;;;;5074429;28;20045;-74
2023/08/20 05:07:56;;;;;;;13.55;6.10;;;15.90;99.90;;;;;;5075439;28;20052;-74
2023/08/20 05:10:21;;;;;;;14.52;6.03;;;15.90;99.90;;;;;;5074113;28;20036;-73
2023/08/20 05:12:47;;;;;;;15.77;5.72;;;16.00;99.90;;;;;;5073956;28;20040;-73
2023/08/20 05:15:13;;;;;;;15.68;5.93;;;15.90;99.90;;;;;;5074420;28;20048;-74
2023/08/20 05:17:39;;;;;;;16.65;6.10;;;16.10;99.90;;;;;;5074326;28;20052;-74
2023/08/20 05:20:05;;;;;;;13.57;5.90;;;16.10;99.90;;;;;;5074250;28;20070;-74
2023/08/20 05:22:31;;;;;;;14.20;5.70;;;16.10;99.90;;;;;;5073958;28;20514;-74
2023/08/20 05:24:57;;;;;;;13.75;5.70;;;16.10;99.90;;;;;;5074127;28;20127;-74
2023/08/20 05:27:22;;;;;;;13.02;6.20;;;16.10;99.90;;;;;;5075138;28;20049;-74
2023/08/20 05:29:48;;;;;;;13.00;5.63;;;16.20;99.90;;;;;;5074034;28;20055;-74
2023/08/20 05:32:16;;;;;;;17.88;6.80;;;16.20;99.90;;;;;;5073674;28;20053;-74
2023/08/20 05:34:44;;;;;;;15.82;6.25;;;16.30;99.90;;;;;;5073512;28;20098;-74
2023/08/20 05:37:11;;;;;;;12.65;5.57;;;16.30;99.90;;;;;;5073706;28;20052;-74
2023/08/20 05:39:40;;;;;;;18.77;5.90;;;16.30;99.90;;;;;;5073613;28;20053;-75
2023/08/20 05:42:06;;;;;;;16.02;5.82;;;16.40;99.90;;;;;;5073562;28;20060;-74
2023/08/20 05:44:31;;;;;;;13.27;5.47;;;16.40;99.90;;;;;;5073488;28;20041;-74
2023/08/20 05:46:57;;;;;;;11.50;5.97;;;16.50;99.90;;;;;;5072610;28;20150;-74
2023/08/20 05:49:22;;;;;;;14.98;5.78;;;16.50;99.90;;;;;;5073642;28;20074;-74
2023/08/20 05:51:48;;;;;;;13.40;5.40;;;16.60;99.90;;;;;;5073210;28;20113;-74
2023/08/20 05:54:14;;;;;;;18.15;5.43;;;16.70;99.90;;;;;;5074741;28;20076;-74
2023/08/20 05:56:39;;;;;;;16.48;5.20;;;16.80;99.90;;;;;;5073538;28;20484;-74
2023/08/20 05:59:05;;;;;;;16.02;5.65;;;16.90;99.90;;;;;;5073204;28;20059;-74
2023/08/20 06:01:31;;;;;;;17.60;5.35;;;17.00;99.90;;;;;;5074519;28;20037;-74
2023/08/20 06:03:56;;;;;;;11.40;5.25;;;17.00;99.90;;;;;;5073336;28;20403;-74
2023/08/20 06:06:22;;;;;;;16.55;5.43;;;17.10;99.90;;;;;;5074643;28;20483;-75
2023/08/20 06:08:48;;;;;;;12.65;5.15;;;17.20;99.90;;;;;;5072766;28;20496;-75
2023/08/20 06:11:13;;;;;;;13.05;4.78;;;17.30;99.90;;;;;;5073229;28;20533;-74
2023/08/20 06:13:39;;;;;;;16.13;4.85;;;17.30;99.90;;;;;;5073603;28;20100;-74
2023/08/20 06:16:06;;;;;;;14.38;4.82;;;17.50;99.90;;;;;;5072856;28;20102;-75
2023/08/20 06:18:32;;;;;;;13.23;5.43;;;17.60;99.90;;;;;;5073134;28;20048;-74
2023/08/20 06:20:58;;;;;;;11.35;4.97;;;17.80;99.90;;;;;;5074303;28;20039;-74
2023/08/20 06:23:26;;;;;;;14.43;4.68;;;17.80;99.90;;;;;;5072731;28;20047;-74
2023/08/20 06:25:51;;;;;;;12.68;4.80;;;18.00;99.90;;;;;;5074101;28;20128;-74
2023/08/20 06:28:18;;;;;;;12.82;5.53;;;18.10;99.90;;;;;;5072667;28;20093;-74
2023/08/20 06:30:44;;;;;;;11.70;4.72;;;18.30;99.90;;;;;;5072989;28;20044;-74
2023/08/20 06:33:10;;;;;;;13.75;4.68;;;18.40;99.90;;;;;;5071129;28;20055;-75
2023/08/20 06:35:35;;;;;;;13.25;4.50;;;18.50;99.90;;;;;;5072275;28;20052;-75
2023/08/20 06:38:03;;;;;;;15.25;4.43;;;18.60;99.90;;;;;;5072726;28;20078;-74
2023/08/20 06:40:28;;;;;;;15.60;4.72;;;18.70;99.90;;;;;;5072466;28;20090;-74
2023/08/20 06:42:57;;;;;;;9.45;4.00;;;18.80;99.90;;;;;;5072536;28;20055;-74
2023/08/20 06:45:22;;;;;;;10.75;4.28;;;18.90;99.90;;;;;;5072398;28;20048;-74
2023/08/20 06:47:48;;;;;;;13.70;4.50;;;19.00;99.90;;;;;;5072917;28;20135;-74
2023/08/20 06:50:13;;;;;;;17.38;4.53;;;19.10;99.90;;;;;;5072444;28;20044;-74
2023/08/20 06:52:39;;;;;;;10.80;4.18;;;19.20;99.90;;;;;;5072248;28;20041;-74
2023/08/20 06:55:05;;;;;;;11.68;4.20;;;19.20;99.90;;;;;;5073752;28;20090;-74
2023/08/20 06:57:31;;;;;;;12.65;4.15;;;19.40;99.90;;;;;;5072170;28;20097;-75
2023/08/20 06:59:56;;;;;;;12.30;4.47;;;19.50;99.90;;;;;;5072398;28;20419;-74
2023/08/20 07:02:26;;;;;;;14.05;4.18;;;19.60;99.90;;;;;;5073487;28;20480;-74
2023/08/20 07:04:54;;;;;;;10.82;4.03;;;19.70;99.90;;;;;;5072256;28;20369;-74
2023/08/20 07:07:19;;;;;;;10.25;3.40;;;19.80;99.90;;;;;;5072088;28;20189;-74
2023/08/20 07:09:45;;;;;;;17.08;4.78;;;19.90;99.90;;;;;;5072097;28;20051;-74
2023/08/20 07:12:11;;;;;;;17.05;4.57;;;20.00;99.90;;;;;;5073223;28;20055;-74
2023/08/20 07:14:36;;;;;;;11.85;3.70;;;20.10;99.90;;;;;;5072285;28;20052;-74
2023/08/20 07:17:05;;;;;;;15.38;4.47;;;20.00;99.90;;;;;;5072050;28;20123;-74
2023/08/20 07:19:30;;;;;;;15.93;4.30;;;20.10;99.90;;;;;;5072149;28;20107;-74
2023/08/20 07:21:56;;;;;;;11.93;4.15;;;20.20;99.90;;;;;;5072285;28;20036;-74
2023/08/20 07:24:29;;;;;;;13.98;3.88;;;20.30;99.90;;;;;;5073242;28;20040;-74
2023/08/20 07:27:00;;;;;;;14.88;4.00;;;20.50;99.90;;;;;;5072234;28;20052;-74
2023/08/20 07:29:32;;;;;;;14.85;3.70;;;20.50;99.90;;;;;;5072050;28;20040;-74
2023/08/20 07:31:58;;;;;;;11.67;3.43;;;20.60;99.90;;;;;;5073290;28;20127;-75
2023/08/20 07:34:23;;;;;;;16.27;3.88;;;20.70;99.90;;;;;;5070571;28;20390;-73
2023/08/20 07:36:49;;;;;;;13.38;3.85;;;20.80;99.90;;;;;;5072015;28;20143;-74
2023/08/20 07:39:17;;;;;;;13.00;3.67;;;20.80;99.90;;;;;;5071601;28;20048;-74
2023/08/20 07:41:43;;;;;;;14.52;4.00;;;20.90;99.90;;;;;;5071862;28;20048;-73
2023/08/20 07:44:11;;;;;;;15.73;3.90;;;20.90;99.90;;;;;;5071529;28;20049;-75
2023/08/20 07:46:37;;;;;;;14.82;3.80;;;21.00;99.90;;;;;;5071478;28;20106;-74
2023/08/20 07:49:03;;;;;;;15.82;3.70;;;21.10;99.90;;;;;;5071684;28;20037;-74
2023/08/20 07:51:29;;;;;;;13.15;3.58;;;21.20;99.90;;;;;;5071685;28;20048;-74
2023/08/20 07:53:55;;;;;;;13.15;3.80;;;21.30;99.90;;;;;;5071546;28;20048;-74
2023/08/20 07:56:20;;;;;;;10.50;3.22;;;21.30;99.90;;;;;;5071784;28;20044;-72
2023/08/20 07:58:46;;;;;;;16.55;3.92;;;21.40;99.90;;;;;;5071951;28;20106;-73
2023/08/20 08:01:13;;;;;;;18.52;3.80;;;21.40;99.90;;;;;;5071408;28;20455;-73
2023/08/20 08:03:40;;;;;;;13.23;3.92;;;21.50;99.90;;;;;;5071407;28;20128;-73
2023/08/20 08:06:05;;;;;;;13.48;4.10;;;21.60;99.90;;;;;;5071704;28;20041;-73
2023/08/20 08:08:31;;;;;;;13.02;4.03;;;21.70;99.90;;;;;;5071547;28;20072;-74
2023/08/20 08:10:57;;;;;;;16.35;3.83;;;21.70;99.90;;;;;;5075028;28;20123;-74
2023/08/20 08:13:23;;;;;;;13.52;3.95;;;21.80;99.90;;;;;;5075138;28;20040;-74
2023/08/20 08:15:50;;;;;;;17.13;3.92;;;21.80;99.90;;;;;;5075414;28;20036;-73
2023/08/20 08:18:15;;;;;;;16.70;4.28;;;21.90;99.90;;;;;;5075380;28;20519;-74
2023/08/20 08:20:41;;;;;;;12.40;4.20;;;21.80;99.90;;;;;;5075161;28;20036;-74
2023/08/20 08:23:07;;;;;;;8.68;3.45;;;21.80;99.90;;;;;;5075024;28;20048;-73
2023/08/20 08:25:33;;;;;;;12.85;3.47;;;21.90;99.90;;;;;;5075232;28;20032;-74
2023/08/20 08:27:58;;;;;;;12.13;4.13;;;22.00;99.90;;;;;;5075266;28;20569;-74
2023/08/20 08:30:27;;;;;;;12.98;3.90;;;22.10;99.90;;;;;;5074473;28;20041;-74
2023/08/20 08:32:53;;;;;;;9.13;3.72;;;22.10;99.90;;;;;;5091778;28;20044;-74
2023/08/20 08:35:19;;;;;;;15.00;3.58;;;22.20;99.90;;;;;;5080362;28;20386;-74
2023/08/20 08:37:45;;;;;;;13.48;3.70;;;22.30;99.90;;;;;;5062446;28;20496;-75
2023/08/20 08:40:11;;;;;;;14.68;2.90;;;22.30;99.90;;;;;;5074983;28;20040;-75
2023/08/20 08:42:37;;;;;;;12.13;3.00;;;22.10;99.90;;;;;;5091742;28;20407;-74
2023/08/20 08:45:03;;;;;;;16.55;4.40;;;22.00;99.90;;;;;;5091310;28;20083;-75
2023/08/20 08:47:29;;;;;;;12.75;3.10;;;22.00;99.90;;;;;;5054806;28;20404;-74
2023/08/20 08:49:56;;;;;;;11.32;3.05;;;22.10;99.90;;;;;;5054817;28;20051;-74
2023/08/20 08:52:23;;;;;;;11.60;4.15;;;22.20;99.90;;;;;;5054415;28;20052;-73
2023/08/20 08:54:49;;;;;;;12.27;3.88;;;21.90;99.90;;;;;;5055646;28;20395;-74
2023/08/20 08:57:15;;;;;;;15.20;3.58;;;21.90;99.90;;;;;;5059719;28;20045;-74
2023/08/20 08:59:42;;;;;;;14.07;3.03;;;21.90;99.90;;;;;;5076009;28;20036;-74
2023/08/20 09:02:10;;;;;;;8.23;2.78;;;22.00;99.90;;;;;;5074579;28;20374;-74
2023/08/20 09:04:43;;;;;;;12.20;3.33;;;22.20;99.90;;;;;;5074583;28;20048;-74
2023/08/20 09:07:12;;;;;;;;;;;22.30;99.90;;;;;;5075262;28;20040;-74
2023/08/20 09:09:42;;;;;;;10.55;3.58;;;22.40;99.90;;;;;;5091450;28;19976;-74
2023/08/20 09:12:18;;;;;;;12.70;3.08;;;22.40;99.90;;;;;;5060189;28;20045;-74
2023/08/20 09:14:47;;;;;;;14.15;3.42;;;22.40;99.90;;;;;;5054403;28;20397;-74
2023/08/20 09:17:13;;;;;;;10.98;3.25;;;22.50;99.90;;;;;;5054075;28;20139;-74
2023/08/20 09:19:39;;;;;;;14.90;3.20;;;22.60;99.90;;;;;;5054261;28;20125;-74
2023/08/20 09:22:08;;;;;;;14.90;3.40;;;22.70;99.90;;;;;;5053118;28;20075;-74
2023/08/20 09:24:38;;;;;;;11.10;2.80;;;22.80;99.90;;;;;;5053783;28;20044;-74
2023/08/20 09:27:07;;;;;;;9.05;2.42;;;22.80;99.90;;;;;;5070803;28;20056;-74
2023/08/20 09:29:46;;;;;;;12.73;3.00;;;23.00;99.90;;;;;;5055324;28;20033;-74
2023/08/20 09:32:17;;;;;;;13.70;2.60;;;23.10;99.90;;;;;;5053881;28;20056;-74
2023/08/20 09:34:43;;;;;;;11.93;2.63;;;23.10;99.90;;;;;;5053563;28;20057;-74
2023/08/20 09:37:16;;;;;;;9.73;2.67;;;23.20;99.90;;;;;;5053630;28;20051;-74
2023/08/20 09:39:42;;;;;;;12.20;2.80;;;23.20;99.90;;;;;;5053979;28;20506;-74
2023/08/20 09:42:09;;;;;;;13.40;2.97;;;23.30;99.90;;;;;;5053855;28;20045;-74
2023/08/20 09:44:45;;;;;;;10.55;2.20;;;23.40;99.90;;;;;;5053524;28;20132;-74
2023/08/20 09:47:15;;;;;;;9.13;2.15;;;23.50;99.90;;;;;;5056536;28;20381;-74
2023/08/20 09:49:43;;;;;;;11.93;3.33;;;23.60;99.90;;;;;;5073420;28;20055;-74
2023/08/20 09:52:11;;;;;;;11.93;3.08;;;23.40;99.90;;;;;;5073646;28;20106;-73
2023/08/20 09:54:41;;;;;;;8.98;2.30;;;23.40;99.90;;;;;;5073535;28;20058;-74
2023/08/20 09:57:14;;;;;;;13.82;3.10;;;23.50;99.90;;;;;;5090142;28;20047;-74
2023/08/20 09:59:41;;;;;;;11.60;2.90;;;23.50;99.90;;;;;;5090318;28;20505;-74
2023/08/20 10:02:11;;;;;;;11.30;2.97;;;23.60;99.90;;;;;;5090104;28;20074;-74
2023/08/20 10:04:37;;;;;;;8.57;2.17;;;23.70;99.90;;;;;;5090243;28;20052;-74
2023/08/20 10:07:04;;;;;;;9.70;2.80;;;23.80;99.90;;;;;;5073063;28;20067;-74
2023/08/20 10:09:29;;;;;;;8.82;2.25;;;23.90;99.90;;;;;;5053290;28;20057;-74
2023/08/20 10:11:55;;;;;;;6.82;1.70;;;24.00;99.90;;;;;;5054174;28;20374;-74
2023/08/20 10:14:21;;;;;;;9.07;2.60;;;24.10;99.90;;;;;;5054504;28;20049;-74
2023/08/20 10:16:47;;;;;;;10.15;2.13;;;24.10;99.90;;;;;;5069599;28;20044;-74
2023/08/20 10:19:16;;;;;;;9.30;2.30;;;24.00;99.90;;;;;;5069565;28;20040;-74
2023/08/20 10:21:46;;;;;;;9.52;2.00;;;23.80;99.90;;;;;;5052876;28;20052;-74
2023/08/20 10:24:18;;;;;;;9.57;2.13;;;23.90;99.90;;;;;;5054039;28;20048;-74
2023/08/20 10:26:46;;;;;;;7.43;1.70;;;23.60;99.90;;;;;;5053117;28;20072;-75
2023/08/20 10:29:36;;;;;;;7.40;2.15;;;23.70;99.90;;;;;;5053281;28;20526;-74
2023/08/20 10:32:08;;;;;;;11.00;2.50;;;23.80;99.90;;;;;;5053729;28;20041;-74
2023/08/20 10:34:39;;;;;;;9.65;2.45;;;23.90;99.90;;;;;;5052715;28;20512;-75
2023/08/20 10:37:15;;;;;;;7.03;1.77;;;24.00;99.90;;;;;;5052964;28;20439;-74
2023/08/20 10:39:44;;;;;;;7.18;1.58;;;24.30;99.90;;;;;;5069276;28;20053;-74
2023/08/20 10:42:19;;;;;;;6.47;1.85;;;24.40;99.90;;;;;;5062032;28;20044;-74
2023/08/20 10:45:10;;;;;;;8.13;1.67;;;24.70;99.90;;;;;;5089613;28;20052;-74
2023/08/20 10:47:36;;;;;;;8.82;2.45;;;24.80;99.90;;;;;;5089244;28;20102;-75
2023/08/20 10:50:06;;;;;;;9.73;2.67;;;24.90;99.90;;;;;;5089178;28;20044;-74
2023/08/20 10:52:41;;;;;;;14.10;2.88;;;25.00;99.90;;;;;;5072088;28;20123;-75
2023/08/20 10:55:09;;;;;;;11.48;2.50;;;25.10;99.90;;;;;;5073545;28;20392;-75
2023/08/20 10:57:36;;;;;;;13.68;3.53;;;25.00;99.90;;;;;;5073591;28;20037;-75
2023/08/20 11:00:10;;;;;;;12.13;2.40;;;24.80;99.90;;;;;;5072371;28;20048;-75
2023/08/20 11:02:36;;;;;;;15.00;3.00;;;24.40;99.90;;;;;;5073830;28;20052;-75
2023/08/20 11:05:04;;;;;;;13.55;3.10;;;24.00;99.90;;;;;;5073645;28;20040;-74
2023/08/20 11:07:31;;;;;;;13.10;3.15;;;24.00;99.90;;;;;;5072402;28;20040;-74
2023/08/20 11:09:57;;;;;;;10.52;2.67;;;23.60;99.90;;;;;;5072482;28;20476;-74
2023/08/20 11:12:23;;;;;;;11.65;3.22;;;23.50;99.90;;;;;;5072203;28;20044;-75
2023/08/20 11:14:49;;;;;;;10.65;3.15;;;23.50;99.90;;;;;;5089162;28;20059;-75
2023/08/20 11:17:18;;;;;;;12.88;2.58;;;23.40;99.90;;;;;;5088722;28;20040;-82
2023/08/20 11:19:44;;;;;;;10.82;2.85;;;23.20;99.90;;;;;;5071742;28;20075;-82
2023/08/20 11:22:10;;;;;;;14.38;2.85;;;23.10;99.90;;;;;;5088982;28;20076;-82
2023/08/20 11:24:38;;;;;;;8.20;2.50;;;22.90;99.90;;;;;;5216808;22;20012;-81
2023/08/20 11:27:04;;;;;;;11.15;2.50;;;22.80;99.90;;;;;;5033474;28;20115;-81
2023/08/20 11:29:31;;;;;;;8.93;2.40;;;22.60;99.90;;;;;;5032332;28;20085;-81
2023/08/20 11:31:58;;;;;;;14.63;3.00;;;22.50;99.90;;;;;;5033478;28;20052;-81
2023/08/20 11:34:27;;;;;;;8.93;2.60;;;22.40;99.90;;;;;;5032262;28;20056;-81
2023/08/20 11:36:53;;;;;;;12.93;2.45;;;22.60;99.90;;;;;;5032180;28;20488;-83
2023/08/20 11:39:19;;;;;;;12.40;2.50;;;22.50;99.90;;;;;;5032281;28;20104;-76
2023/08/20 11:41:45;;;;;;;11.23;2.45;;;22.70;99.90;;;;;;5033505;28;20042;-74
2023/08/20 11:44:18;;;;;;;12.82;3.25;;;22.90;99.90;;;;;;5033983;28;20405;-74
2023/08/20 11:46:44;;;;;;;15.20;3.75;;;22.90;99.90;;;;;;5036191;28;20037;-74
2023/08/20 11:49:12;;;;;;;9.10;2.55;;;23.10;99.90;;;;;;5037069;28;20077;-74
2023/08/20 11:51:38;;;;;;;10.55;2.67;;;23.30;99.90;;;;;;5037022;28;20480;-74
2023/08/20 11:54:11;;;;;;;9.68;2.88;;;23.40;99.90;;;;;;5035600;28;20053;-75
2023/08/20 11:56:50;;;;;;;12.70;2.78;;;23.40;99.90;;;;;;5035941;28;20104;-75
2023/08/20 11:59:18;;;;;;;11.02;2.70;;;23.60;99.90;;;;;;5035787;28;20528;-75
2023/08/20 12:01:54;;;;;;;11.00;2.97;;;23.50;99.90;;;;;;5036837;28;20045;-75
2023/08/20 12:04:25;;;;;;;12.95;2.78;;;23.50;99.90;;;;;;5035693;28;20045;-75
2023/08/20 12:07:04;;;;;;;10.80;2.70;;;23.60;99.90;;;;;;5035606;28;20102;-75
2023/08/20 12:09:31;;;;;;;16.85;2.97;;;23.60;99.90;;;;;;5049745;28;20056;-75
2023/08/20 12:11:57;;;;;;;11.30;2.45;;;23.80;99.90;;;;;;5055421;28;20056;-75
2023/08/20 12:14:26;;;;;;;9.98;2.95;;;23.80;99.90;;;;;;5055491;28;20095;-74
2023/08/20 12:16:53;;;;;;;10.93;2.58;;;23.70;99.90;;;;;;5056491;28;20060;-75
2023/08/20 12:19:19;;;;;;;12.55;3.00;;;23.80;99.90;;;;;;5056680;28;20089;-75
2023/08/20 12:21:48;;;;;;;11.40;2.53;;;23.70;99.90;;;;;;5055176;28;20132;-74
2023/08/20 12:24:14;;;;;;;9.63;2.75;;;23.50;99.90;;;;;;5055352;28;20037;-74
2023/08/20 12:26:41;;;;;;;12.20;3.20;;;23.20;99.90;;;;;;5056169;28;20057;-74
2023/08/20 12:29:08;;;;;;;12.48;3.60;;;23.30;99.90;;;;;;5056471;28;20187;-74
2023/08/20 12:31:35;;;;;;;9.10;2.40;;;23.30;99.90;;;;;;5056213;28;20053;-74
2023/08/20 12:34:03;;;;;;;8.82;1.95;;;23.30;99.90;;;;;;5056000;28;20049;-74
2023/08/20 12:36:29;;;;;;;6.88;2.58;;;23.30;99.90;;;;;;5054903;28;20060;-74
2023/08/20 12:38:55;;;;;;;10.98;2.58;;;23.40;99.90;;;;;;5055227;28;20099;-74